createdAt,value
2023-04-27T00:00:45.779Z,101206.97
2023-04-27T00:03:12.286Z,101206.44
2023-04-27T00:05:39.610Z,101208.88
2023-04-27T00:08:06.346Z,101205.56
2023-04-27T00:10:32.806Z,101204.47
2023-04-27T00:12:59.265Z,101199.22
2023-04-27T00:15:25.718Z,101199.28
2023-04-27T00:17:53.524Z,101199.81
2023-04-27T00:20:19.991Z,101199.81
2023-04-27T00:22:46.519Z,101199.22
2023-04-27T00:25:12.977Z,101200.91
2023-04-27T00:27:39.475Z,101193.72
2023-04-27T00:30:07.073Z,101207.00
2023-04-27T00:32:33.556Z,101198.69
2023-04-27T00:35:01.492Z,101199.78
2023-04-27T00:37:27.880Z,101192.06
2023-04-27T00:39:54.237Z,101202.28
2023-04-27T00:42:20.590Z,101202.56
2023-04-27T00:44:47.171Z,101202.28
2023-04-27T00:47:14.665Z,101204.69
2023-04-27T00:49:41.080Z,101201.47
2023-04-27T00:52:08.773Z,101205.22
2023-04-27T00:54:35.221Z,101199.50
2023-04-27T00:57:01.648Z,101195.66
2023-04-27T00:59:29.024Z,101202.00
2023-04-27T01:01:56.200Z,101203.88
2023-04-27T01:04:22.746Z,101205.59
2023-04-27T01:06:49.178Z,101211.25
2023-04-27T01:09:16.940Z,101209.16
2023-04-27T01:11:43.294Z,101207.56
2023-04-27T01:14:09.828Z,101203.31
2023-04-27T01:16:36.224Z,101218.63
2023-04-27T01:19:02.804Z,101209.75
2023-04-27T01:21:29.224Z,101218.81
2023-04-27T01:23:56.895Z,101216.03
2023-04-27T01:26:23.314Z,101221.63
2023-04-27T01:28:49.703Z,101222.31
2023-04-27T01:31:16.121Z,101221.66
2023-04-27T01:33:42.696Z,101231.34
2023-04-27T01:36:09.608Z,101232.63
2023-04-27T01:38:36.397Z,101236.91
2023-04-27T01:41:05.686Z,101237.06
2023-04-27T01:43:32.125Z,101248.47
2023-04-27T01:46:05.804Z,101247.34
2023-04-27T01:48:32.199Z,101257.50
2023-04-27T01:50:58.585Z,101261.94
2023-04-27T01:53:24.966Z,101262.16
2023-04-27T01:55:51.384Z,101271.22
2023-04-27T01:58:19.143Z,101277.56
2023-04-27T02:00:45.548Z,101274.13
2023-04-27T02:03:12.074Z,101283.56
2023-04-27T02:05:38.657Z,101282.28
2023-04-27T02:08:05.399Z,101285.22
2023-04-27T02:10:31.856Z,101283.34
2023-04-27T02:12:58.233Z,101298.44
2023-04-27T02:15:26.333Z,101287.09
2023-04-27T02:17:52.786Z,101290.09
2023-04-27T02:20:19.501Z,101293.53
2023-04-27T02:22:46.024Z,101303.56
2023-04-27T02:25:13.205Z,101298.78
2023-04-27T02:27:40.043Z,101303.09
2023-04-27T02:30:08.665Z,101298.69
2023-04-27T02:32:37.449Z,101298.28
2023-04-27T02:35:04.415Z,101298.94
2023-04-27T02:37:30.831Z,101298.19
2023-04-27T02:39:57.249Z,101301.94
2023-04-27T02:42:23.611Z,101295.13
2023-04-27T02:44:49.956Z,101290.16
2023-04-27T02:47:16.420Z,101294.06
2023-04-27T02:49:44.218Z,101297.63
2023-04-27T02:52:10.586Z,101295.31
2023-04-27T02:54:37.182Z,101292.72
2023-04-27T02:57:03.741Z,101286.84
2023-04-27T02:59:30.100Z,101293.09
2023-04-27T03:01:56.602Z,101295.00
2023-04-27T03:04:23.056Z,101286.31
2023-04-27T03:06:50.797Z,101286.16
2023-04-27T03:09:17.292Z,101290.53
2023-04-27T03:11:43.778Z,101288.69
2023-04-27T03:14:10.154Z,101285.09
2023-04-27T03:16:39.524Z,101288.13
2023-04-27T03:19:06.014Z,101287.25
2023-04-27T03:21:32.374Z,101283.41
2023-04-27T03:24:01.223Z,101290.19
2023-04-27T03:26:27.875Z,101294.19
2023-04-27T03:28:54.222Z,101284.72
2023-04-27T03:31:20.862Z,101292.75
2023-04-27T03:33:47.260Z,101292.28
2023-04-27T03:36:13.782Z,101296.25
2023-04-27T03:38:40.234Z,101294.63
2023-04-27T03:41:07.906Z,101299.16
2023-04-27T03:43:34.260Z,101306.22
2023-04-27T03:46:00.664Z,101308.22
2023-04-27T03:48:27.100Z,101305.06
2023-04-27T03:50:53.479Z,101307.66
2023-04-27T03:53:19.876Z,101311.66
2023-04-27T03:55:46.269Z,101313.28
2023-04-27T03:58:13.982Z,101313.84
2023-04-27T04:00:40.540Z,101311.78
2023-04-27T04:03:07.515Z,101311.59
2023-04-27T04:05:34.302Z,101315.78
2023-04-27T04:08:00.730Z,101313.53
2023-04-27T04:10:27.114Z,101308.22
2023-04-27T04:12:53.489Z,101314.72
2023-04-27T04:15:21.452Z,101324.69
2023-04-27T04:17:47.830Z,101326.88
2023-04-27T04:20:14.303Z,101327.75
2023-04-27T04:22:40.706Z,101322.28
2023-04-27T04:25:07.831Z,101327.41
2023-04-27T04:27:34.223Z,101330.00
2023-04-27T04:30:00.631Z,101328.66
2023-04-27T04:32:28.461Z,101329.56
2023-04-27T04:34:54.890Z,101336.25
2023-04-27T04:37:21.353Z,101330.69
2023-04-27T04:39:47.753Z,101328.31
2023-04-27T04:42:14.140Z,101321.22
2023-04-27T04:44:40.539Z,101327.63
2023-04-27T04:47:06.913Z,101325.34
2023-04-27T04:49:34.618Z,101327.94
2023-04-27T04:52:01.075Z,101322.41
2023-04-27T04:54:27.410Z,101333.72
2023-04-27T04:56:53.741Z,101334.44
2023-04-27T04:59:20.298Z,101338.34
2023-04-27T05:01:46.716Z,101328.88
2023-04-27T05:04:13.430Z,101340.47
2023-04-27T05:06:41.432Z,101347.16
2023-04-27T05:09:07.979Z,101341.97
2023-04-27T05:11:34.464Z,101346.34
2023-04-27T05:14:00.855Z,101339.84
2023-04-27T05:16:27.418Z,101346.72
2023-04-27T05:18:53.819Z,101348.84
2023-04-27T05:21:20.376Z,101344.19
2023-04-27T05:23:49.089Z,101351.44
2023-04-27T05:26:17.022Z,101350.94
2023-04-27T05:28:43.704Z,101358.31
2023-04-27T05:31:10.175Z,101363.09
2023-04-27T05:33:36.588Z,101358.47
2023-04-27T05:36:03.312Z,101364.13
2023-04-27T05:38:29.841Z,101365.09
2023-04-27T05:40:58.124Z,101367.34
2023-04-27T05:43:25.184Z,101373.38
2023-04-27T05:45:51.799Z,101381.94
2023-04-27T05:48:18.372Z,101379.84
2023-04-27T05:50:45.090Z,101379.84
2023-04-27T05:53:11.592Z,101377.28
2023-04-27T05:55:37.962Z,101381.91
2023-04-27T05:58:08.940Z,101388.13
2023-04-27T06:00:35.990Z,101385.84
2023-04-27T06:03:02.558Z,101391.72
2023-04-27T06:05:29.140Z,101384.97
2023-04-27T06:07:55.554Z,101390.75
2023-04-27T06:10:22.089Z,101394.50
2023-04-27T06:12:48.477Z,101388.78
2023-04-27T06:15:16.428Z,101388.13
2023-04-27T06:17:42.880Z,101400.41
2023-04-27T06:20:09.956Z,101397.09
2023-04-27T06:22:36.338Z,101404.69
2023-04-27T06:25:02.999Z,101402.47
2023-04-27T06:27:29.428Z,101402.16
2023-04-27T06:29:55.986Z,101404.34
2023-04-27T06:32:23.687Z,101409.19
2023-04-27T06:34:50.627Z,101415.69
2023-04-27T06:37:17.095Z,101416.53
2023-04-27T06:39:43.674Z,101401.38
2023-04-27T06:42:10.134Z,101408.13
2023-04-27T06:44:36.533Z,101414.69
2023-04-27T06:47:02.984Z,101417.53
2023-04-27T06:49:30.923Z,101412.03
2023-04-27T06:51:57.374Z,101417.31
2023-04-27T06:54:25.182Z,101413.50
2023-04-27T06:56:51.576Z,101410.75
2023-04-27T06:59:18.295Z,101416.19
2023-04-27T07:01:44.740Z,101422.34
2023-04-27T07:04:11.243Z,101422.59
2023-04-27T07:06:38.984Z,101410.47
2023-04-27T07:09:13.310Z,101411.03
2023-04-27T07:11:46.951Z,101410.19
2023-04-27T07:14:13.348Z,101414.63
2023-04-27T07:16:39.891Z,101412.88
2023-04-27T07:19:06.443Z,101410.22
2023-04-27T07:21:32.816Z,101414.03
2023-04-27T07:24:00.488Z,101420.44
2023-04-27T07:26:26.926Z,101412.31
2023-04-27T07:28:53.352Z,101415.63
2023-04-27T07:31:19.788Z,101414.00
2023-04-27T07:33:46.190Z,101413.22
2023-04-27T07:36:12.562Z,101420.97
2023-04-27T07:38:38.939Z,101410.09
2023-04-27T07:41:07.122Z,101424.41
2023-04-27T07:43:33.516Z,101429.59
2023-04-27T07:45:59.938Z,101424.03
2023-04-27T07:48:26.834Z,101425.91
2023-04-27T07:50:53.267Z,101429.91
2023-04-27T07:53:19.807Z,101430.13
2023-04-27T07:55:46.692Z,101432.66
2023-04-27T07:58:14.401Z,101419.53
2023-04-27T08:00:40.764Z,101416.25
2023-04-27T08:03:07.340Z,101417.34
2023-04-27T08:05:34.169Z,101417.41
2023-04-27T08:08:00.973Z,101418.00
2023-04-27T08:10:27.893Z,101410.38
2023-04-27T08:12:54.291Z,101400.44
2023-04-27T08:15:22.282Z,101423.75
2023-04-27T08:17:48.704Z,101410.47
2023-04-27T08:20:15.228Z,101415.47
2023-04-27T08:22:41.658Z,101406.72
2023-04-27T08:25:09.050Z,101404.88
2023-04-27T08:27:38.375Z,101397.47
2023-04-27T08:30:06.104Z,101397.97
2023-04-27T08:32:33.893Z,101399.72
2023-04-27T08:35:00.404Z,101394.97
2023-04-27T08:37:26.846Z,101396.72
2023-04-27T08:39:53.258Z,101393.16
2023-04-27T08:42:19.609Z,101394.34
2023-04-27T08:44:45.991Z,101388.88
2023-04-27T08:47:12.624Z,101398.16
2023-04-27T08:49:40.318Z,101393.31
2023-04-27T08:52:10.944Z,101394.69
2023-04-27T08:54:37.329Z,101396.50
2023-04-27T08:57:08.973Z,101399.91
2023-04-27T08:59:35.370Z,101379.28
2023-04-27T09:02:01.786Z,101384.41
2023-04-27T09:04:36.956Z,101393.56
2023-04-27T09:07:11.839Z,101387.78
2023-04-27T09:09:38.257Z,101385.41
2023-04-27T09:12:13.970Z,101394.88
2023-04-27T09:14:40.681Z,101385.41
2023-04-27T09:17:07.154Z,101381.09
2023-04-27T09:19:33.541Z,101386.19
2023-04-27T09:22:04.667Z,101386.16
2023-04-27T09:24:32.455Z,101382.06
2023-04-27T09:27:00.646Z,101389.28
2023-04-27T09:29:33.949Z,101387.41
2023-04-27T09:32:00.370Z,101379.88
2023-04-27T09:34:26.925Z,101379.03
2023-04-27T09:36:53.335Z,101384.25
2023-04-27T09:39:19.822Z,101379.22
2023-04-27T09:41:49.044Z,101374.88
2023-04-27T09:44:16.046Z,101372.75
2023-04-27T09:46:43.135Z,101373.50
2023-04-27T09:49:09.948Z,101368.34
2023-04-27T09:51:36.319Z,101369.56
2023-04-27T09:54:04.505Z,101371.31
2023-04-27T09:56:44.345Z,101366.53
2023-04-27T09:59:30.430Z,101364.53
2023-04-27T10:02:00.111Z,101363.94
2023-04-27T10:04:45.346Z,101362.34
2023-04-27T10:07:12.438Z,101370.78
2023-04-27T10:09:41.945Z,101361.66
2023-04-27T10:12:19.003Z,101363.84
2023-04-27T10:14:53.172Z,101368.81
2023-04-27T10:17:24.824Z,101373.38
2023-04-27T10:19:58.688Z,101380.63
2023-04-27T10:22:36.501Z,101371.06
2023-04-27T10:25:13.314Z,101368.81
2023-04-27T10:27:40.194Z,101365.91
2023-04-27T10:30:12.114Z,101365.03
2023-04-27T10:32:38.653Z,101368.59
2023-04-27T10:35:06.223Z,101366.19
2023-04-27T10:37:39.523Z,101364.94
2023-04-27T10:40:08.075Z,101372.72
2023-04-27T10:42:34.443Z,101357.00
2023-04-27T10:45:00.852Z,101359.50
2023-04-27T10:47:38.464Z,101365.19
2023-04-27T10:50:06.293Z,101366.06
2023-04-27T10:52:32.659Z,101356.63
2023-04-27T10:55:05.253Z,101362.13
2023-04-27T10:57:31.691Z,101354.97
2023-04-27T10:59:58.306Z,101356.44
2023-04-27T11:02:26.643Z,101356.81
2023-04-27T11:04:55.849Z,101355.06
2023-04-27T11:07:26.702Z,101353.66
2023-04-27T11:09:53.476Z,101350.78
2023-04-27T11:12:19.917Z,101353.94
2023-04-27T11:14:46.402Z,101347.44
2023-04-27T11:17:12.747Z,101345.06
2023-04-27T11:19:45.504Z,101350.31
2023-04-27T11:22:14.603Z,101353.69
2023-04-27T11:24:46.567Z,101349.28
2023-04-27T11:27:13.302Z,101348.88
2023-04-27T11:29:39.943Z,101352.28
2023-04-27T11:32:06.430Z,101355.59
2023-04-27T11:34:33.219Z,101356.22
2023-04-27T11:39:34.810Z,101353.66
2023-04-27T11:42:14.892Z,101354.88
2023-04-27T11:44:41.535Z,101351.88
2023-04-27T11:47:08.058Z,101357.25
2023-04-27T11:49:34.570Z,101347.94
2023-04-27T11:52:02.399Z,101352.78
2023-04-27T11:54:29.028Z,101351.59
2023-04-27T11:57:05.201Z,101342.78
2023-04-27T11:59:31.818Z,101343.19
2023-04-27T12:01:58.282Z,101340.19
2023-04-27T12:04:25.018Z,101334.03
2023-04-27T12:06:51.628Z,101333.16
2023-04-27T12:09:18.031Z,101345.63
2023-04-27T12:11:44.628Z,101338.84
2023-04-27T12:14:12.454Z,101334.50
2023-04-27T12:16:39.088Z,101334.72
2023-04-27T12:19:05.581Z,101335.75
2023-04-27T12:21:32.012Z,101333.03
2023-04-27T12:23:58.402Z,101334.50
2023-04-27T12:26:24.924Z,101324.06
2023-04-27T12:28:51.284Z,101329.25
2023-04-27T12:31:19.326Z,101324.88
2023-04-27T12:33:45.917Z,101324.84
2023-04-27T12:36:12.847Z,101329.97
2023-04-27T12:38:39.288Z,101317.88
2023-04-27T12:41:06.244Z,101320.25
2023-04-27T12:43:32.651Z,101334.00
2023-04-27T12:45:59.062Z,101319.47
2023-04-27T12:48:26.875Z,101317.22
2023-04-27T12:50:53.300Z,101314.56
2023-04-27T12:53:19.697Z,101319.31
2023-04-27T12:55:46.062Z,101312.72
2023-04-27T12:58:12.437Z,101313.69
2023-04-27T13:00:38.861Z,101312.88
2023-04-27T13:03:05.949Z,101309.09
2023-04-27T13:05:33.802Z,101309.66
2023-04-27T13:08:00.212Z,101317.03
2023-04-27T13:10:27.802Z,101313.63
2023-04-27T13:12:54.341Z,101309.22
2023-04-27T13:15:20.991Z,101316.13
2023-04-27T13:17:47.409Z,101320.91
2023-04-27T13:20:13.935Z,101309.66
2023-04-27T13:22:41.630Z,101308.97
2023-04-27T13:25:08.654Z,101313.88
2023-04-27T13:27:35.154Z,101308.81
2023-04-27T13:30:01.517Z,101311.94
2023-04-27T13:32:27.968Z,101308.44
2023-04-27T13:34:54.386Z,101310.91
2023-04-27T13:37:21.817Z,101310.91
2023-04-27T13:39:49.692Z,101309.69
2023-04-27T13:42:16.054Z,101306.00
2023-04-27T13:44:42.437Z,101310.22
2023-04-27T13:47:08.854Z,101303.66
2023-04-27T13:49:35.240Z,101298.31
2023-04-27T13:52:01.809Z,101296.78
2023-04-27T13:54:28.558Z,101301.03
2023-04-27T13:56:56.276Z,101287.53
2023-04-27T13:59:22.749Z,101295.69
2023-04-27T14:01:49.398Z,101297.78
2023-04-27T14:04:15.852Z,101294.50
2023-04-27T14:06:42.267Z,101291.66
2023-04-27T14:09:08.677Z,101296.97
2023-04-27T14:11:45.078Z,101289.63
2023-04-27T14:14:20.458Z,101280.97
2023-04-27T14:16:46.873Z,101274.28
2023-04-27T14:19:14.010Z,101278.13
2023-04-27T14:21:40.602Z,101269.34
2023-04-27T14:24:07.163Z,101264.38
2023-04-27T14:26:33.587Z,101262.47
2023-04-27T14:29:00.023Z,101262.78
2023-04-27T14:31:27.776Z,101262.63
2023-04-27T14:33:54.168Z,101253.25
2023-04-27T14:36:20.565Z,101258.00
2023-04-27T14:38:46.912Z,101247.72
2023-04-27T14:41:13.305Z,101247.69
2023-04-27T14:43:39.772Z,101243.72
2023-04-27T14:46:19.661Z,101252.88
2023-04-27T14:48:48.318Z,101245.13
2023-04-27T14:51:14.994Z,101246.59
2023-04-27T14:53:41.729Z,101243.88
2023-04-27T14:56:08.379Z,101241.88
2023-04-27T14:58:34.752Z,101235.38
2023-04-27T15:01:01.656Z,101228.78
2023-04-27T15:03:28.425Z,101232.00
2023-04-27T15:05:56.179Z,101236.44
2023-04-27T15:08:22.586Z,101235.78
2023-04-27T15:10:49.025Z,101238.81
2023-04-27T15:13:15.475Z,101232.09
2023-04-27T15:15:42.666Z,101236.78
2023-04-27T15:18:09.184Z,101233.00
2023-04-27T15:20:35.596Z,101226.13
2023-04-27T15:23:03.566Z,101224.69
2023-04-27T15:25:29.982Z,101227.69
2023-04-27T15:27:56.365Z,101225.34
2023-04-27T15:30:22.870Z,101223.69
2023-04-27T15:32:49.277Z,101229.78
2023-04-27T15:35:15.667Z,101223.03
2023-04-27T15:37:42.020Z,101223.91
2023-04-27T15:40:10.907Z,101225.75
2023-04-27T15:42:37.413Z,101224.53
2023-04-27T15:45:04.635Z,101217.69
2023-04-27T15:47:31.256Z,101222.25
2023-04-27T15:49:58.376Z,101216.09
2023-04-27T15:52:25.203Z,101214.38
2023-04-27T15:54:51.626Z,101216.66
2023-04-27T15:57:19.376Z,101217.13
2023-04-27T15:59:45.828Z,101209.94
2023-04-27T16:02:12.645Z,101208.41
2023-04-27T16:04:41.954Z,101203.72
2023-04-27T16:07:08.398Z,101214.03
2023-04-27T16:09:35.172Z,101201.81
2023-04-27T16:12:01.578Z,101198.31
2023-04-27T16:14:29.326Z,101200.69
2023-04-27T16:16:55.843Z,101195.16
2023-04-27T16:19:24.687Z,101198.06
2023-04-27T16:21:51.119Z,101191.19
2023-04-27T16:24:17.526Z,101191.94
2023-04-27T16:26:43.892Z,101189.25
2023-04-27T16:29:10.405Z,101187.38
2023-04-27T16:31:38.328Z,101182.75
2023-04-27T16:34:05.052Z,101183.66
2023-04-27T16:36:31.426Z,101185.44
2023-04-27T16:38:57.821Z,101184.28
2023-04-27T16:41:24.220Z,101187.03
2023-04-27T16:43:50.636Z,101176.41
2023-04-27T16:46:17.324Z,101184.50
2023-04-27T16:48:45.073Z,101188.78
2023-04-27T16:51:11.450Z,101190.47
2023-04-27T16:53:37.916Z,101196.28
2023-04-27T16:56:05.002Z,101196.59
2023-04-27T16:58:31.718Z,101195.16
2023-04-27T17:00:58.276Z,101194.94
2023-04-27T17:03:25.311Z,101195.91
2023-04-27T17:05:53.308Z,101201.63
2023-04-27T17:08:19.969Z,101195.03
2023-04-27T17:10:46.444Z,101193.09
2023-04-27T17:13:12.866Z,101200.81
2023-04-27T17:15:39.281Z,101192.88
2023-04-27T17:18:05.924Z,101198.06
2023-04-27T17:20:32.350Z,101193.06
2023-04-27T17:23:00.107Z,101184.16
2023-04-27T17:25:26.663Z,101181.84
2023-04-27T17:27:53.207Z,101177.22
2023-04-27T17:30:20.247Z,101178.00
2023-04-27T17:32:46.664Z,101176.88
2023-04-27T17:35:13.192Z,101173.63
2023-04-27T17:37:39.600Z,101176.19
2023-04-27T17:40:08.670Z,101173.78
2023-04-27T17:42:35.714Z,101170.63
2023-04-27T17:45:02.146Z,101170.97
2023-04-27T17:47:28.538Z,101173.41
2023-04-27T17:49:55.038Z,101177.16
2023-04-27T17:52:21.465Z,101178.28
2023-04-27T17:54:47.933Z,101169.00
2023-04-27T17:57:15.660Z,101173.78
2023-04-27T17:59:42.230Z,101171.69
2023-04-27T18:02:08.627Z,101166.69
2023-04-27T18:04:35.069Z,101165.28
2023-04-27T18:07:01.622Z,101161.44
2023-04-27T18:09:28.772Z,101160.38
2023-04-27T18:11:56.438Z,101164.66
2023-04-27T18:14:24.255Z,101156.13
2023-04-27T18:16:50.823Z,101156.78
2023-04-27T18:19:17.549Z,101154.69
2023-04-27T18:21:44.039Z,101160.22
2023-04-27T18:24:10.410Z,101163.06
2023-04-27T18:26:36.889Z,101163.19
2023-04-27T18:29:03.567Z,101161.75
2023-04-27T18:31:31.379Z,101167.09
2023-04-27T18:33:58.952Z,101168.34
2023-04-27T18:36:26.209Z,101164.00
2023-04-27T18:38:52.599Z,101166.97
2023-04-27T18:41:19.183Z,101168.22
2023-04-27T18:43:45.648Z,101176.63
2023-04-27T18:46:12.227Z,101173.25
2023-04-27T18:48:39.943Z,101181.13
2023-04-27T18:51:06.356Z,101178.59
2023-04-27T18:53:32.771Z,101174.97
2023-04-27T18:56:00.178Z,101164.81
2023-04-27T18:58:26.599Z,101166.03
2023-04-27T19:00:52.965Z,101170.66
2023-04-27T19:03:19.839Z,101175.41
2023-04-27T19:05:47.782Z,101174.47
2023-04-27T19:08:14.246Z,101173.38
2023-04-27T19:10:40.647Z,101169.72
2023-04-27T19:13:07.225Z,101173.19
2023-04-27T19:15:33.635Z,101172.88
2023-04-27T19:18:06.996Z,101169.72
2023-04-27T19:20:37.246Z,101172.03
2023-04-27T19:23:05.020Z,101170.81
2023-04-27T19:25:31.400Z,101165.00
2023-04-27T19:27:57.937Z,101164.84
2023-04-27T19:30:24.552Z,101166.81
2023-04-27T19:32:50.927Z,101161.84
2023-04-27T19:35:17.313Z,101161.69
2023-04-27T19:37:43.680Z,101160.69
2023-04-27T19:40:12.455Z,101159.50
2023-04-27T19:42:38.819Z,101161.63
2023-04-27T19:45:06.549Z,101152.00
2023-04-27T19:47:33.769Z,101160.59
2023-04-27T19:50:00.167Z,101156.06
2023-04-27T19:52:26.556Z,101149.56
2023-04-27T19:54:53.009Z,101157.19
2023-04-27T19:57:21.428Z,101159.19
2023-04-27T19:59:47.877Z,101164.03
2023-04-27T20:02:14.283Z,101165.28
2023-04-27T20:04:40.930Z,101164.03
2023-04-27T20:07:07.523Z,101162.84
2023-04-27T20:09:33.910Z,101163.69
2023-04-27T20:12:00.462Z,101167.88
2023-04-27T20:14:28.271Z,101156.47
2023-04-27T20:16:54.689Z,101155.75
2023-04-27T20:19:21.147Z,101162.50
2023-04-27T20:21:47.595Z,101165.91
2023-04-27T20:24:14.206Z,101159.16
2023-04-27T20:26:40.913Z,101160.41
2023-04-27T20:29:07.651Z,101164.00
2023-04-27T20:31:35.473Z,101166.34
2023-04-27T20:34:02.235Z,101164.00
2023-04-27T20:36:28.606Z,101163.13
2023-04-27T20:38:55.012Z,101162.41
2023-04-27T20:41:21.406Z,101161.81
2023-04-27T20:43:47.803Z,101161.22
2023-04-27T20:46:14.199Z,101160.50
2023-04-27T20:48:42.021Z,101152.75
2023-04-27T20:51:08.682Z,101148.72
2023-04-27T20:53:35.077Z,101148.19
2023-04-27T20:56:01.774Z,101152.84
2023-04-27T20:58:28.244Z,101142.88
2023-04-27T21:00:54.757Z,101135.47
2023-04-27T21:03:21.516Z,101136.88
2023-04-27T21:05:49.400Z,101138.47
2023-04-27T21:08:16.060Z,101130.69
2023-04-27T21:10:42.810Z,101129.91
2023-04-27T21:13:09.282Z,101138.31
2023-04-27T21:15:35.706Z,101138.91
2023-04-27T21:18:02.131Z,101137.28
2023-04-27T21:20:28.758Z,101130.44
2023-04-27T21:22:56.477Z,101128.25
2023-04-27T21:25:23.897Z,101132.00
2023-04-27T21:27:50.417Z,101130.59
2023-04-27T21:30:16.761Z,101118.50
2023-04-27T21:32:43.204Z,101126.72
2023-04-27T21:35:09.973Z,101119.81
2023-04-27T21:37:36.374Z,101118.78
2023-04-27T21:40:05.559Z,101116.66
2023-04-27T21:42:32.035Z,101114.66
2023-04-27T21:44:58.455Z,101110.63
2023-04-27T21:47:24.954Z,101115.47
2023-04-27T21:49:52.542Z,101122.09
2023-04-27T21:52:19.218Z,101121.06
2023-04-27T21:54:45.614Z,101111.97
2023-04-27T21:57:13.300Z,101111.63
2023-04-27T21:59:39.672Z,101106.53
2023-04-27T22:02:06.140Z,101108.47
2023-04-27T22:04:33.892Z,101112.25
2023-04-27T22:07:00.301Z,101107.91
2023-04-27T22:09:26.664Z,101102.78
2023-04-27T22:11:53.029Z,101108.50
2023-04-27T22:14:20.710Z,101101.88
2023-04-27T22:16:47.106Z,101098.00
2023-04-27T22:19:13.449Z,101084.88
2023-04-27T22:21:39.848Z,101093.47
2023-04-27T22:24:06.564Z,101085.72
2023-04-27T22:26:32.953Z,101073.81
2023-04-27T22:28:59.299Z,101074.41
2023-04-27T22:31:27.267Z,101072.94
2023-04-27T22:33:53.712Z,101075.41
2023-04-27T22:36:20.086Z,101069.78
2023-04-27T22:38:46.509Z,101069.03
2023-04-27T22:41:12.860Z,101061.72
2023-04-27T22:43:39.249Z,101061.69
2023-04-27T22:46:05.806Z,101055.97
2023-04-27T22:48:33.497Z,101059.19
2023-04-27T22:50:59.847Z,101060.63
2023-04-27T22:53:26.256Z,101049.50
2023-04-27T22:55:52.604Z,101049.69
2023-04-27T22:58:18.943Z,101048.38
2023-04-27T23:00:45.353Z,101049.47
2023-04-27T23:03:11.852Z,101050.13
2023-04-27T23:05:39.806Z,101043.19
2023-04-27T23:08:06.249Z,101047.47
2023-04-27T23:10:32.616Z,101037.53
2023-04-27T23:12:58.987Z,101037.25
2023-04-27T23:15:25.408Z,101031.03
2023-04-27T23:17:51.855Z,101036.59
2023-04-27T23:20:28.113Z,101028.78
2023-04-27T23:22:56.655Z,101020.56
2023-04-27T23:25:23.188Z,101016.81
2023-04-27T23:27:51.952Z,101019.34
2023-04-27T23:30:19.970Z,101019.09
2023-04-27T23:32:47.804Z,101014.41
2023-04-27T23:35:14.192Z,101013.59
2023-04-27T23:37:40.700Z,101023.84
2023-04-27T23:40:09.251Z,101022.81
2023-04-27T23:42:35.625Z,101022.25
2023-04-27T23:45:02.142Z,101010.28
2023-04-27T23:47:28.571Z,101006.47
2023-04-27T23:49:55.045Z,101002.88
2023-04-27T23:52:23.429Z,100997.06
2023-04-27T23:54:49.784Z,101002.25
2023-04-27T23:57:17.446Z,100996.31
2023-04-27T23:59:43.840Z,100991.81
